Terminal Aerodrome Forecast
Issued by NWS

Home | Current Version | Previous Version | Text Only | Print | Product List | Glossary On
Versions: 1 2 3 4 5 6 7 8 9 10 11 12 13 14 15 16 17 18 19 20 21 22 23 24 25 26
000
FTUS43 KAPX 211720
TAFTVC
TAF
KTVC 211720Z 2118/2218 20012KT P6SM SCT050
     FM212100 21013G21KT P6SM VCSH BKN070
     FM220100 20014G22KT 6SM -SHRA BR OVC050
     FM220700 21013KT 6SM -SHRA BR OVC019
     FM221400 22010G23KT 4SM SHRA BR OVC009=

USA.gov is the U.S. government's official web portal to all federal, state and local government web resources and services.